sensor_id;sensor_type;location;lat;lon;timestamp;P1;durP1;ratioP1;P2;durP2;ratioP2
24801;SDS011;12898;50.520;12.152;2022-09-09T00:01:11;3.38;;;1.83;;
24801;SDS011;12898;50.520;12.152;2022-09-09T00:04:27;4.00;;;1.88;;
24801;SDS011;12898;50.520;12.152;2022-09-09T00:13:05;3.75;;;1.30;;
24801;SDS011;12898;50.520;12.152;2022-09-09T00:21:34;5.43;;;1.73;;
24801;SDS011;12898;50.520;12.152;2022-09-09T00:24:10;3.00;;;1.55;;
24801;SDS011;12898;50.520;12.152;2022-09-09T00:26:51;3.28;;;1.50;;
24801;SDS011;12898;50.520;12.152;2022-09-09T00:32:16;8.35;;;1.63;;
24801;SDS011;12898;50.520;12.152;2022-09-09T00:37:43;4.47;;;1.45;;
24801;SDS011;12898;50.520;12.152;2022-09-09T00:40:34;3.45;;;1.60;;
24801;SDS011;12898;50.520;12.152;2022-09-09T00:43:21;4.20;;;1.65;;
24801;SDS011;12898;50.520;12.152;2022-09-09T00:45:59;2.33;;;1.55;;
24801;SDS011;12898;50.520;12.152;2022-09-09T00:51:59;2.60;;;1.50;;
24801;SDS011;12898;50.520;12.152;2022-09-09T00:54:52;4.25;;;1.63;;
24801;SDS011;12898;50.520;12.152;2022-09-09T00:57:41;4.57;;;1.58;;
24801;SDS011;12898;50.520;12.152;2022-09-09T01:00:18;3.30;;;1.80;;
24801;SDS011;12898;50.520;12.152;2022-09-09T01:02:56;5.40;;;2.05;;
24801;SDS011;12898;50.520;12.152;2022-09-09T01:05:55;8.10;;;2.00;;
24801;SDS011;12898;50.520;12.152;2022-09-09T01:11:05;3.00;;;1.73;;
24801;SDS011;12898;50.520;12.152;2022-09-09T01:13:40;6.90;;;2.55;;
24801;SDS011;12898;50.520;12.152;2022-09-09T01:16:08;5.22;;;1.83;;
24801;SDS011;12898;50.520;12.152;2022-09-09T01:18:39;3.53;;;1.63;;
24801;SDS011;12898;50.520;12.152;2022-09-09T01:26:46;5.97;;;2.15;;
24801;SDS011;12898;50.520;12.152;2022-09-09T01:29:16;5.38;;;1.80;;
24801;SDS011;12898;50.520;12.152;2022-09-09T01:31:53;5.03;;;1.90;;
24801;SDS011;12898;50.520;12.152;2022-09-09T01:34:25;5.82;;;1.98;;
24801;SDS011;12898;50.520;12.152;2022-09-09T01:37:06;2.05;;;1.52;;
24801;SDS011;12898;50.520;12.152;2022-09-09T01:39:34;3.88;;;1.95;;
24801;SDS011;12898;50.520;12.152;2022-09-09T01:42:02;3.05;;;1.75;;
24801;SDS011;12898;50.520;12.152;2022-09-09T01:44:32;2.67;;;1.60;;
24801;SDS011;12898;50.520;12.152;2022-09-09T01:46:59;3.00;;;1.70;;
24801;SDS011;12898;50.520;12.152;2022-09-09T01:49:25;3.22;;;1.85;;
24801;SDS011;12898;50.520;12.152;2022-09-09T01:51:52;6.20;;;2.00;;
24801;SDS011;12898;50.520;12.152;2022-09-09T01:54:20;7.22;;;1.60;;
24801;SDS011;12898;50.520;12.152;2022-09-09T02:00:02;4.07;;;1.85;;
24801;SDS011;12898;50.520;12.152;2022-09-09T02:02:54;4.13;;;1.70;;
24801;SDS011;12898;50.520;12.152;2022-09-09T02:05:37;2.47;;;1.63;;
24801;SDS011;12898;50.520;12.152;2022-09-09T02:08:11;3.60;;;1.70;;
24801;SDS011;12898;50.520;12.152;2022-09-09T02:10:56;2.67;;;1.60;;
24801;SDS011;12898;50.520;12.152;2022-09-09T02:13:40;3.33;;;1.80;;
24801;SDS011;12898;50.520;12.152;2022-09-09T02:16:10;2.25;;;1.88;;
24801;SDS011;12898;50.520;12.152;2022-09-09T02:18:53;4.18;;;1.83;;
24801;SDS011;12898;50.520;12.152;2022-09-09T02:21:37;4.65;;;2.17;;
24801;SDS011;12898;50.520;12.152;2022-09-09T02:24:07;4.75;;;1.95;;
24801;SDS011;12898;50.520;12.152;2022-09-09T02:26:40;6.72;;;1.88;;
24801;SDS011;12898;50.520;12.152;2022-09-09T02:29:11;5.25;;;1.85;;
24801;SDS011;12898;50.520;12.152;2022-09-09T02:31:42;2.42;;;2.00;;
24801;SDS011;12898;50.520;12.152;2022-09-09T02:34:10;2.10;;;1.75;;
24801;SDS011;12898;50.520;12.152;2022-09-09T02:36:38;6.18;;;2.22;;
24801;SDS011;12898;50.520;12.152;2022-09-09T02:39:08;4.10;;;1.83;;
24801;SDS011;12898;50.520;12.152;2022-09-09T02:41:36;3.05;;;1.75;;
24801;SDS011;12898;50.520;12.152;2022-09-09T02:44:08;3.65;;;1.98;;
24801;SDS011;12898;50.520;12.152;2022-09-09T02:49:40;4.63;;;1.92;;
24801;SDS011;12898;50.520;12.152;2022-09-09T02:55:09;5.03;;;2.38;;
24801;SDS011;12898;50.520;12.152;2022-09-09T02:57:44;3.63;;;1.90;;
24801;SDS011;12898;50.520;12.152;2022-09-09T03:00:12;4.40;;;1.88;;
24801;SDS011;12898;50.520;12.152;2022-09-09T03:02:38;4.47;;;2.08;;
24801;SDS011;12898;50.520;12.152;2022-09-09T03:05:05;4.95;;;2.22;;
24801;SDS011;12898;50.520;12.152;2022-09-09T03:07:31;6.38;;;2.15;;
24801;SDS011;12898;50.520;12.152;2022-09-09T03:09:57;6.50;;;2.22;;
24801;SDS011;12898;50.520;12.152;2022-09-09T03:12:23;3.92;;;2.10;;
24801;SDS011;12898;50.520;12.152;2022-09-09T03:14:49;5.03;;;2.00;;
24801;SDS011;12898;50.520;12.152;2022-09-09T03:17:15;5.05;;;2.40;;
24801;SDS011;12898;50.520;12.152;2022-09-09T03:19:41;2.45;;;1.60;;
24801;SDS011;12898;50.520;12.152;2022-09-09T03:22:09;8.07;;;2.13;;
24801;SDS011;12898;50.520;12.152;2022-09-09T03:24:36;3.30;;;1.88;;
24801;SDS011;12898;50.520;12.152;2022-09-09T03:27:02;4.50;;;2.10;;
24801;SDS011;12898;50.520;12.152;2022-09-09T03:29:27;4.47;;;2.30;;
24801;SDS011;12898;50.520;12.152;2022-09-09T03:31:53;5.00;;;2.42;;
24801;SDS011;12898;50.520;12.152;2022-09-09T03:34:19;3.60;;;2.28;;
24801;SDS011;12898;50.520;12.152;2022-09-09T03:36:44;3.97;;;2.20;;
24801;SDS011;12898;50.520;12.152;2022-09-09T03:39:11;6.22;;;2.42;;
24801;SDS011;12898;50.520;12.152;2022-09-09T03:41:36;5.75;;;2.50;;
24801;SDS011;12898;50.520;12.152;2022-09-09T03:44:02;8.32;;;2.33;;
24801;SDS011;12898;50.520;12.152;2022-09-09T03:46:28;7.43;;;2.50;;
24801;SDS011;12898;50.520;12.152;2022-09-09T03:48:54;7.07;;;2.67;;
24801;SDS011;12898;50.520;12.152;2022-09-09T03:51:19;7.95;;;2.40;;
24801;SDS011;12898;50.520;12.152;2022-09-09T03:53:46;8.35;;;2.50;;
24801;SDS011;12898;50.520;12.152;2022-09-09T03:56:12;7.78;;;2.10;;
24801;SDS011;12898;50.520;12.152;2022-09-09T03:58:38;4.40;;;1.92;;
24801;SDS011;12898;50.520;12.152;2022-09-09T04:01:08;6.65;;;1.83;;
24801;SDS011;12898;50.520;12.152;2022-09-09T04:03:41;3.67;;;1.88;;
24801;SDS011;12898;50.520;12.152;2022-09-09T04:06:08;4.25;;;2.10;;
24801;SDS011;12898;50.520;12.152;2022-09-09T04:08:36;3.75;;;2.00;;
24801;SDS011;12898;50.520;12.152;2022-09-09T04:11:03;4.43;;;1.80;;
24801;SDS011;12898;50.520;12.152;2022-09-09T04:13:31;3.58;;;1.65;;
24801;SDS011;12898;50.520;12.152;2022-09-09T04:15:59;5.95;;;1.98;;
24801;SDS011;12898;50.520;12.152;2022-09-09T04:18:27;5.88;;;1.90;;
24801;SDS011;12898;50.520;12.152;2022-09-09T04:20:55;5.95;;;2.20;;
24801;SDS011;12898;50.520;12.152;2022-09-09T04:23:23;3.25;;;1.60;;
24801;SDS011;12898;50.520;12.152;2022-09-09T04:25:53;5.93;;;2.00;;
24801;SDS011;12898;50.520;12.152;2022-09-09T04:28:22;5.15;;;2.10;;
24801;SDS011;12898;50.520;12.152;2022-09-09T04:30:49;6.15;;;2.22;;
24801;SDS011;12898;50.520;12.152;2022-09-09T04:33:17;7.15;;;2.00;;
24801;SDS011;12898;50.520;12.152;2022-09-09T04:35:44;3.88;;;2.03;;
24801;SDS011;12898;50.520;12.152;2022-09-09T04:38:11;12.38;;;4.35;;
24801;SDS011;12898;50.520;12.152;2022-09-09T04:40:37;8.10;;;3.53;;
24801;SDS011;12898;50.520;12.152;2022-09-09T04:43:07;12.10;;;3.72;;
24801;SDS011;12898;50.520;12.152;2022-09-09T04:45:33;10.63;;;3.30;;
24801;SDS011;12898;50.520;12.152;2022-09-09T04:47:59;10.80;;;3.95;;
24801;SDS011;12898;50.520;12.152;2022-09-09T04:50:24;13.13;;;3.63;;
24801;SDS011;12898;50.520;12.152;2022-09-09T04:52:50;7.65;;;2.58;;
24801;SDS011;12898;50.520;12.152;2022-09-09T04:55:16;4.85;;;2.25;;
24801;SDS011;12898;50.520;12.152;2022-09-09T04:57:42;9.20;;;3.55;;
24801;SDS011;12898;50.520;12.152;2022-09-09T05:00:08;4.43;;;2.50;;
24801;SDS011;12898;50.520;12.152;2022-09-09T05:02:38;8.23;;;2.78;;
24801;SDS011;12898;50.520;12.152;2022-09-09T05:05:05;7.18;;;2.42;;
24801;SDS011;12898;50.520;12.152;2022-09-09T05:07:31;5.78;;;1.85;;
24801;SDS011;12898;50.520;12.152;2022-09-09T05:09:57;5.32;;;2.00;;
24801;SDS011;12898;50.520;12.152;2022-09-09T05:12:23;4.75;;;2.08;;
24801;SDS011;12898;50.520;12.152;2022-09-09T05:14:50;8.73;;;2.20;;
24801;SDS011;12898;50.520;12.152;2022-09-09T05:17:17;6.50;;;2.53;;
24801;SDS011;12898;50.520;12.152;2022-09-09T05:19:42;7.90;;;2.00;;
24801;SDS011;12898;50.520;12.152;2022-09-09T05:22:09;3.90;;;1.65;;
24801;SDS011;12898;50.520;12.152;2022-09-09T05:24:36;6.90;;;2.05;;
24801;SDS011;12898;50.520;12.152;2022-09-09T05:27:03;5.25;;;1.75;;
24801;SDS011;12898;50.520;12.152;2022-09-09T05:29:31;5.53;;;1.88;;
24801;SDS011;12898;50.520;12.152;2022-09-09T05:31:58;6.50;;;2.08;;
24801;SDS011;12898;50.520;12.152;2022-09-09T05:34:24;9.75;;;2.47;;
24801;SDS011;12898;50.520;12.152;2022-09-09T05:36:50;5.50;;;1.92;;
24801;SDS011;12898;50.520;12.152;2022-09-09T05:39:17;10.98;;;1.88;;
24801;SDS011;12898;50.520;12.152;2022-09-09T05:41:43;3.42;;;1.77;;
24801;SDS011;12898;50.520;12.152;2022-09-09T05:44:09;8.23;;;2.20;;
24801;SDS011;12898;50.520;12.152;2022-09-09T05:46:34;5.72;;;2.03;;
24801;SDS011;12898;50.520;12.152;2022-09-09T05:49:01;6.72;;;2.05;;
24801;SDS011;12898;50.520;12.152;2022-09-09T05:51:28;4.45;;;1.83;;
24801;SDS011;12898;50.520;12.152;2022-09-09T05:53:57;4.03;;;1.80;;
24801;SDS011;12898;50.520;12.152;2022-09-09T05:56:24;5.97;;;1.70;;
24801;SDS011;12898;50.520;12.152;2022-09-09T05:58:52;12.90;;;1.80;;
24801;SDS011;12898;50.520;12.152;2022-09-09T06:01:23;6.18;;;1.90;;
24801;SDS011;12898;50.520;12.152;2022-09-09T06:03:52;6.97;;;1.90;;
24801;SDS011;12898;50.520;12.152;2022-09-09T06:06:19;3.75;;;1.55;;
24801;SDS011;12898;50.520;12.152;2022-09-09T06:08:47;6.13;;;1.77;;
24801;SDS011;12898;50.520;12.152;2022-09-09T06:11:23;6.63;;;1.80;;
24801;SDS011;12898;50.520;12.152;2022-09-09T06:13:51;6.93;;;1.80;;
24801;SDS011;12898;50.520;12.152;2022-09-09T06:16:19;8.98;;;1.98;;
24801;SDS011;12898;50.520;12.152;2022-09-09T06:18:51;9.52;;;1.80;;
24801;SDS011;12898;50.520;12.152;2022-09-09T06:21:23;8.43;;;3.00;;
24801;SDS011;12898;50.520;12.152;2022-09-09T06:23:55;4.90;;;2.25;;
24801;SDS011;12898;50.520;12.152;2022-09-09T06:26:29;6.50;;;1.80;;
24801;SDS011;12898;50.520;12.152;2022-09-09T06:29:00;6.78;;;1.80;;
24801;SDS011;12898;50.520;12.152;2022-09-09T06:31:29;5.22;;;2.13;;
24801;SDS011;12898;50.520;12.152;2022-09-09T06:33:58;3.75;;;1.65;;
24801;SDS011;12898;50.520;12.152;2022-09-09T06:36:29;5.07;;;1.90;;
24801;SDS011;12898;50.520;12.152;2022-09-09T06:38:58;6.60;;;1.85;;
24801;SDS011;12898;50.520;12.152;2022-09-09T06:41:25;5.35;;;1.80;;
24801;SDS011;12898;50.520;12.152;2022-09-09T06:43:53;5.68;;;2.00;;
24801;SDS011;12898;50.520;12.152;2022-09-09T06:46:21;13.75;;;4.70;;
24801;SDS011;12898;50.520;12.152;2022-09-09T06:48:57;5.57;;;2.20;;
24801;SDS011;12898;50.520;12.152;2022-09-09T06:51:28;8.82;;;2.25;;
24801;SDS011;12898;50.520;12.152;2022-09-09T06:53:57;8.40;;;2.20;;
24801;SDS011;12898;50.520;12.152;2022-09-09T06:56:25;5.00;;;1.50;;
24801;SDS011;12898;50.520;12.152;2022-09-09T06:58:57;4.75;;;1.63;;
24801;SDS011;12898;50.520;12.152;2022-09-09T07:01:26;5.55;;;2.08;;
24801;SDS011;12898;50.520;12.152;2022-09-09T07:04:00;6.82;;;1.80;;
24801;SDS011;12898;50.520;12.152;2022-09-09T07:06:29;7.07;;;1.98;;
24801;SDS011;12898;50.520;12.152;2022-09-09T07:08:58;9.32;;;2.35;;
24801;SDS011;12898;50.520;12.152;2022-09-09T07:11:30;8.43;;;2.17;;
24801;SDS011;12898;50.520;12.152;2022-09-09T07:13:59;5.18;;;2.13;;
24801;SDS011;12898;50.520;12.152;2022-09-09T07:16:26;4.78;;;1.80;;
24801;SDS011;12898;50.520;12.152;2022-09-09T07:18:52;8.45;;;2.35;;
24801;SDS011;12898;50.520;12.152;2022-09-09T07:21:23;6.38;;;1.73;;
24801;SDS011;12898;50.520;12.152;2022-09-09T07:23:51;7.38;;;1.77;;
24801;SDS011;12898;50.520;12.152;2022-09-09T07:26:17;5.28;;;1.77;;
24801;SDS011;12898;50.520;12.152;2022-09-09T07:28:45;5.90;;;2.08;;
24801;SDS011;12898;50.520;12.152;2022-09-09T07:31:16;5.93;;;2.30;;
24801;SDS011;12898;50.520;12.152;2022-09-09T07:33:56;4.90;;;1.73;;
24801;SDS011;12898;50.520;12.152;2022-09-09T07:36:28;6.43;;;2.13;;
24801;SDS011;12898;50.520;12.152;2022-09-09T07:39:00;6.22;;;1.90;;
24801;SDS011;12898;50.520;12.152;2022-09-09T07:41:31;6.72;;;1.95;;
24801;SDS011;12898;50.520;12.152;2022-09-09T07:44:08;3.97;;;1.75;;
24801;SDS011;12898;50.520;12.152;2022-09-09T07:46:49;5.68;;;1.48;;
24801;SDS011;12898;50.520;12.152;2022-09-09T07:49:15;8.02;;;1.70;;
24801;SDS011;12898;50.520;12.152;2022-09-09T07:51:44;3.53;;;1.70;;
24801;SDS011;12898;50.520;12.152;2022-09-09T07:54:14;4.72;;;2.00;;
24801;SDS011;12898;50.520;12.152;2022-09-09T07:56:44;3.25;;;1.48;;
24801;SDS011;12898;50.520;12.152;2022-09-09T07:59:11;4.18;;;1.73;;
24801;SDS011;12898;50.520;12.152;2022-09-09T08:01:48;3.33;;;1.50;;
24801;SDS011;12898;50.520;12.152;2022-09-09T08:04:17;3.88;;;1.67;;
24801;SDS011;12898;50.520;12.152;2022-09-09T08:09:23;6.47;;;1.70;;
24801;SDS011;12898;50.520;12.152;2022-09-09T08:11:51;4.40;;;1.83;;
24801;SDS011;12898;50.520;12.152;2022-09-09T08:14:18;7.32;;;1.92;;
24801;SDS011;12898;50.520;12.152;2022-09-09T08:16:45;4.10;;;1.38;;
24801;SDS011;12898;50.520;12.152;2022-09-09T08:19:13;4.28;;;1.38;;
24801;SDS011;12898;50.520;12.152;2022-09-09T08:21:40;6.25;;;1.70;;
24801;SDS011;12898;50.520;12.152;2022-09-09T08:24:07;4.10;;;1.30;;
24801;SDS011;12898;50.520;12.152;2022-09-09T08:26:38;5.00;;;1.50;;
24801;SDS011;12898;50.520;12.152;2022-09-09T08:29:07;5.70;;;1.58;;
24801;SDS011;12898;50.520;12.152;2022-09-09T08:31:45;4.88;;;1.50;;
24801;SDS011;12898;50.520;12.152;2022-09-09T08:34:22;7.43;;;1.55;;
24801;SDS011;12898;50.520;12.152;2022-09-09T08:36:53;6.13;;;1.80;;
24801;SDS011;12898;50.520;12.152;2022-09-09T08:39:20;4.68;;;1.40;;
24801;SDS011;12898;50.520;12.152;2022-09-09T08:58:29;5.88;;;1.20;;
24801;SDS011;12898;50.520;12.152;2022-09-09T09:11:34;4.18;;;1.05;;
24801;SDS011;12898;50.520;12.152;2022-09-09T09:14:11;5.15;;;1.52;;
24801;SDS011;12898;50.520;12.152;2022-09-09T09:19:38;5.85;;;1.27;;
24801;SDS011;12898;50.520;12.152;2022-09-09T09:24:57;6.57;;;1.60;;
24801;SDS011;12898;50.520;12.152;2022-09-09T09:30:50;3.22;;;1.17;;
24801;SDS011;12898;50.520;12.152;2022-09-09T09:33:37;4.10;;;1.10;;
24801;SDS011;12898;50.520;12.152;2022-09-09T09:36:11;10.23;;;1.90;;
24801;SDS011;12898;50.520;12.152;2022-09-09T09:38:50;8.23;;;1.67;;
24801;SDS011;12898;50.520;12.152;2022-09-09T09:41:36;6.10;;;1.35;;
24801;SDS011;12898;50.520;12.152;2022-09-09T09:44:18;5.68;;;1.27;;
24801;SDS011;12898;50.520;12.152;2022-09-09T09:46:52;6.47;;;1.20;;
24801;SDS011;12898;50.520;12.152;2022-09-09T09:49:50;3.78;;;1.17;;
24801;SDS011;12898;50.520;12.152;2022-09-09T09:52:31;5.53;;;1.58;;
24801;SDS011;12898;50.520;12.152;2022-09-09T09:54:59;3.13;;;0.95;;
24801;SDS011;12898;50.520;12.152;2022-09-09T09:57:32;3.80;;;1.00;;
24801;SDS011;12898;50.520;12.152;2022-09-09T10:02:41;6.10;;;1.45;;
24801;SDS011;12898;50.520;12.152;2022-09-09T10:07:43;4.88;;;0.93;;
24801;SDS011;12898;50.520;12.152;2022-09-09T10:10:19;3.97;;;1.08;;
24801;SDS011;12898;50.520;12.152;2022-09-09T10:13:00;2.35;;;1.00;;
24801;SDS011;12898;50.520;12.152;2022-09-09T10:15:54;3.67;;;0.93;;
24801;SDS011;12898;50.520;12.152;2022-09-09T10:18:40;5.60;;;1.30;;
24801;SDS011;12898;50.520;12.152;2022-09-09T10:33:33;9.75;;;1.10;;
24801;SDS011;12898;50.520;12.152;2022-09-09T10:36:16;7.10;;;1.30;;
24801;SDS011;12898;50.520;12.152;2022-09-09T10:38:58;6.53;;;1.23;;
24801;SDS011;12898;50.520;12.152;2022-09-09T10:41:45;4.05;;;0.82;;
24801;SDS011;12898;50.520;12.152;2022-09-09T10:44:29;3.58;;;1.20;;
24801;SDS011;12898;50.520;12.152;2022-09-09T10:47:21;5.35;;;1.50;;
24801;SDS011;12898;50.520;12.152;2022-09-09T10:56:01;6.68;;;1.38;;
24801;SDS011;12898;50.520;12.152;2022-09-09T10:58:48;5.22;;;1.33;;
24801;SDS011;12898;50.520;12.152;2022-09-09T11:01:44;7.00;;;1.48;;
24801;SDS011;12898;50.520;12.152;2022-09-09T11:04:30;4.95;;;1.50;;
24801;SDS011;12898;50.520;12.152;2022-09-09T11:07:07;5.55;;;1.45;;
24801;SDS011;12898;50.520;12.152;2022-09-09T11:09:43;4.35;;;1.25;;
24801;SDS011;12898;50.520;12.152;2022-09-09T11:12:17;6.65;;;1.20;;
24801;SDS011;12898;50.520;12.152;2022-09-09T11:14:54;7.05;;;1.60;;
24801;SDS011;12898;50.520;12.152;2022-09-09T11:17:42;8.40;;;1.30;;
24801;SDS011;12898;50.520;12.152;2022-09-09T11:20:14;4.80;;;1.50;;
24801;SDS011;12898;50.520;12.152;2022-09-09T11:25:18;5.00;;;1.10;;
24801;SDS011;12898;50.520;12.152;2022-09-09T11:42:39;6.55;;;1.17;;
24801;SDS011;12898;50.520;12.152;2022-09-09T11:47:55;8.13;;;1.17;;
24801;SDS011;12898;50.520;12.152;2022-09-09T11:52:48;5.13;;;1.20;;
24801;SDS011;12898;50.520;12.152;2022-09-09T12:00:40;6.35;;;1.30;;
24801;SDS011;12898;50.520;12.152;2022-09-09T12:08:44;4.40;;;1.15;;
24801;SDS011;12898;50.520;12.152;2022-09-09T12:11:25;5.95;;;1.25;;
24801;SDS011;12898;50.520;12.152;2022-09-09T12:13:54;5.40;;;1.00;;
24801;SDS011;12898;50.520;12.152;2022-09-09T12:16:35;4.35;;;1.08;;
24801;SDS011;12898;50.520;12.152;2022-09-09T12:19:14;2.67;;;0.93;;
24801;SDS011;12898;50.520;12.152;2022-09-09T12:21:49;3.65;;;1.05;;
24801;SDS011;12898;50.520;12.152;2022-09-09T12:24:31;3.78;;;1.02;;
24801;SDS011;12898;50.520;12.152;2022-09-09T12:32:27;4.82;;;1.08;;
24801;SDS011;12898;50.520;12.152;2022-09-09T12:34:59;5.25;;;1.00;;
24801;SDS011;12898;50.520;12.152;2022-09-09T12:37:33;3.08;;;0.70;;
24801;SDS011;12898;50.520;12.152;2022-09-09T12:40:03;2.42;;;0.80;;
24801;SDS011;12898;50.520;12.152;2022-09-09T12:42:30;4.68;;;1.30;;
24801;SDS011;12898;50.520;12.152;2022-09-09T12:45:01;4.47;;;1.00;;
24801;SDS011;12898;50.520;12.152;2022-09-09T12:47:32;4.97;;;1.00;;
24801;SDS011;12898;50.520;12.152;2022-09-09T12:50:29;4.55;;;0.80;;
24801;SDS011;12898;50.520;12.152;2022-09-09T12:53:08;3.70;;;0.80;;
24801;SDS011;12898;50.520;12.152;2022-09-09T12:55:48;4.47;;;0.85;;
24801;SDS011;12898;50.520;12.152;2022-09-09T12:58:17;3.42;;;0.73;;
24801;SDS011;12898;50.520;12.152;2022-09-09T13:00:52;2.55;;;0.90;;
24801;SDS011;12898;50.520;12.152;2022-09-09T13:03:23;4.97;;;1.30;;
24801;SDS011;12898;50.520;12.152;2022-09-09T13:05:52;3.92;;;0.93;;
24801;SDS011;12898;50.520;12.152;2022-09-09T13:08:25;3.40;;;0.90;;
24801;SDS011;12898;50.520;12.152;2022-09-09T13:13:30;4.63;;;0.70;;
24801;SDS011;12898;50.520;12.152;2022-09-09T13:16:02;4.35;;;1.10;;
24801;SDS011;12898;50.520;12.152;2022-09-09T13:18:35;3.97;;;1.10;;
24801;SDS011;12898;50.520;12.152;2022-09-09T13:21:08;4.10;;;0.90;;
24801;SDS011;12898;50.520;12.152;2022-09-09T13:23:35;5.95;;;1.25;;
24801;SDS011;12898;50.520;12.152;2022-09-09T13:26:04;3.03;;;1.30;;
24801;SDS011;12898;50.520;12.152;2022-09-09T13:28:48;4.22;;;0.88;;
24801;SDS011;12898;50.520;12.152;2022-09-09T13:31:27;5.13;;;1.20;;
24801;SDS011;12898;50.520;12.152;2022-09-09T13:33:56;4.55;;;1.05;;
24801;SDS011;12898;50.520;12.152;2022-09-09T13:36:32;3.38;;;1.25;;
24801;SDS011;12898;50.520;12.152;2022-09-09T13:39:00;5.95;;;1.08;;
24801;SDS011;12898;50.520;12.152;2022-09-09T13:44:01;3.88;;;1.38;;
24801;SDS011;12898;50.520;12.152;2022-09-09T13:51:37;4.03;;;1.50;;
24801;SDS011;12898;50.520;12.152;2022-09-09T13:54:11;5.05;;;1.58;;
24801;SDS011;12898;50.520;12.152;2022-09-09T13:56:39;4.10;;;1.40;;
24801;SDS011;12898;50.520;12.152;2022-09-09T13:59:06;5.40;;;1.58;;
24801;SDS011;12898;50.520;12.152;2022-09-09T14:01:38;3.10;;;1.58;;
24801;SDS011;12898;50.520;12.152;2022-09-09T14:04:04;4.28;;;1.77;;
24801;SDS011;12898;50.520;12.152;2022-09-09T14:06:31;2.13;;;1.50;;
24801;SDS011;12898;50.520;12.152;2022-09-09T14:08:57;6.20;;;1.67;;
24801;SDS011;12898;50.520;12.152;2022-09-09T14:11:24;2.85;;;1.48;;
24801;SDS011;12898;50.520;12.152;2022-09-09T14:13:49;2.67;;;1.70;;
24801;SDS011;12898;50.520;12.152;2022-09-09T14:16:16;7.28;;;1.95;;
24801;SDS011;12898;50.520;12.152;2022-09-09T14:18:43;11.77;;;2.40;;
24801;SDS011;12898;50.520;12.152;2022-09-09T14:21:10;21.23;;;3.30;;
24801;SDS011;12898;50.520;12.152;2022-09-09T14:23:37;5.40;;;1.85;;
24801;SDS011;12898;50.520;12.152;2022-09-09T14:26:03;5.40;;;1.60;;
24801;SDS011;12898;50.520;12.152;2022-09-09T14:28:33;7.28;;;2.35;;
24801;SDS011;12898;50.520;12.152;2022-09-09T14:31:00;7.97;;;1.77;;
24801;SDS011;12898;50.520;12.152;2022-09-09T14:33:28;7.70;;;1.77;;
24801;SDS011;12898;50.520;12.152;2022-09-09T14:35:55;16.88;;;2.67;;
24801;SDS011;12898;50.520;12.152;2022-09-09T14:38:22;4.85;;;1.25;;
24801;SDS011;12898;50.520;12.152;2022-09-09T14:40:48;8.60;;;1.80;;
24801;SDS011;12898;50.520;12.152;2022-09-09T14:43:14;5.55;;;1.65;;
24801;SDS011;12898;50.520;12.152;2022-09-09T14:45:39;3.38;;;1.15;;
24801;SDS011;12898;50.520;12.152;2022-09-09T14:48:05;6.88;;;1.45;;
24801;SDS011;12898;50.520;12.152;2022-09-09T14:50:31;6.13;;;1.77;;
24801;SDS011;12898;50.520;12.152;2022-09-09T14:52:57;5.00;;;1.95;;
24801;SDS011;12898;50.520;12.152;2022-09-09T14:55:22;3.45;;;1.42;;
24801;SDS011;12898;50.520;12.152;2022-09-09T14:57:48;5.25;;;1.27;;
24801;SDS011;12898;50.520;12.152;2022-09-09T15:00:14;1.85;;;1.20;;
24801;SDS011;12898;50.520;12.152;2022-09-09T15:02:42;6.25;;;1.33;;
24801;SDS011;12898;50.520;12.152;2022-09-09T15:05:08;5.00;;;1.60;;
24801;SDS011;12898;50.520;12.152;2022-09-09T15:07:33;5.68;;;1.58;;
24801;SDS011;12898;50.520;12.152;2022-09-09T15:09:59;3.53;;;1.27;;
24801;SDS011;12898;50.520;12.152;2022-09-09T15:12:25;3.85;;;1.27;;
24801;SDS011;12898;50.520;12.152;2022-09-09T15:14:51;6.88;;;1.98;;
24801;SDS011;12898;50.520;12.152;2022-09-09T15:17:18;4.78;;;1.80;;
24801;SDS011;12898;50.520;12.152;2022-09-09T15:19:45;6.85;;;2.20;;
24801;SDS011;12898;50.520;12.152;2022-09-09T15:22:11;5.30;;;1.70;;
24801;SDS011;12898;50.520;12.152;2022-09-09T15:24:36;5.40;;;1.52;;
24801;SDS011;12898;50.520;12.152;2022-09-09T15:27:02;6.50;;;1.77;;
24801;SDS011;12898;50.520;12.152;2022-09-09T15:29:29;3.00;;;1.73;;
24801;SDS011;12898;50.520;12.152;2022-09-09T15:31:55;4.03;;;2.15;;
24801;SDS011;12898;50.520;12.152;2022-09-09T15:34:21;4.53;;;1.60;;
24801;SDS011;12898;50.520;12.152;2022-09-09T15:36:47;4.10;;;1.42;;
24801;SDS011;12898;50.520;12.152;2022-09-09T15:39:14;4.28;;;1.65;;
24801;SDS011;12898;50.520;12.152;2022-09-09T15:41:42;5.68;;;1.77;;
24801;SDS011;12898;50.520;12.152;2022-09-09T15:44:09;6.93;;;2.03;;
24801;SDS011;12898;50.520;12.152;2022-09-09T15:46:44;4.10;;;1.70;;
24801;SDS011;12898;50.520;12.152;2022-09-09T15:49:25;5.53;;;1.85;;
24801;SDS011;12898;50.520;12.152;2022-09-09T15:51:55;3.78;;;1.58;;
24801;SDS011;12898;50.520;12.152;2022-09-09T15:54:23;3.65;;;1.35;;
24801;SDS011;12898;50.520;12.152;2022-09-09T15:56:52;2.38;;;1.05;;
24801;SDS011;12898;50.520;12.152;2022-09-09T15:59:27;2.67;;;1.08;;
24801;SDS011;12898;50.520;12.152;2022-09-09T16:01:55;2.75;;;0.80;;
24801;SDS011;12898;50.520;12.152;2022-09-09T16:04:21;3.28;;;1.17;;
24801;SDS011;12898;50.520;12.152;2022-09-09T16:09:40;2.38;;;0.88;;
24801;SDS011;12898;50.520;12.152;2022-09-09T16:12:08;3.55;;;1.00;;
24801;SDS011;12898;50.520;12.152;2022-09-09T16:14:36;3.30;;;1.00;;
24801;SDS011;12898;50.520;12.152;2022-09-09T16:17:04;2.00;;;0.95;;
24801;SDS011;12898;50.520;12.152;2022-09-09T16:19:31;2.60;;;1.10;;
24801;SDS011;12898;50.520;12.152;2022-09-09T16:21:57;6.70;;;1.50;;
24801;SDS011;12898;50.520;12.152;2022-09-09T16:24:23;3.25;;;1.00;;
24801;SDS011;12898;50.520;12.152;2022-09-09T16:26:52;4.55;;;1.38;;
24801;SDS011;12898;50.520;12.152;2022-09-09T16:29:20;3.15;;;1.30;;
24801;SDS011;12898;50.520;12.152;2022-09-09T16:31:47;2.45;;;1.30;;
24801;SDS011;12898;50.520;12.152;2022-09-09T16:34:15;2.65;;;1.10;;
24801;SDS011;12898;50.520;12.152;2022-09-09T16:36:42;4.22;;;1.00;;
24801;SDS011;12898;50.520;12.152;2022-09-09T16:39:10;2.83;;;1.17;;
24801;SDS011;12898;50.520;12.152;2022-09-09T16:41:39;2.60;;;1.10;;
24801;SDS011;12898;50.520;12.152;2022-09-09T16:44:06;1.90;;;1.20;;
24801;SDS011;12898;50.520;12.152;2022-09-09T16:46:35;2.22;;;1.20;;
24801;SDS011;12898;50.520;12.152;2022-09-09T16:49:04;1.45;;;0.90;;
24801;SDS011;12898;50.520;12.152;2022-09-09T16:51:34;7.90;;;1.10;;
24801;SDS011;12898;50.520;12.152;2022-09-09T16:54:06;2.55;;;1.10;;
24801;SDS011;12898;50.520;12.152;2022-09-09T16:56:34;1.98;;;1.00;;
24801;SDS011;12898;50.520;12.152;2022-09-09T16:59:03;3.00;;;1.02;;
24801;SDS011;12898;50.520;12.152;2022-09-09T17:01:34;4.03;;;1.27;;
24801;SDS011;12898;50.520;12.152;2022-09-09T17:04:03;3.67;;;1.30;;
24801;SDS011;12898;50.520;12.152;2022-09-09T17:06:31;5.18;;;1.30;;
24801;SDS011;12898;50.520;12.152;2022-09-09T17:09:00;3.40;;;1.80;;
24801;SDS011;12898;50.520;12.152;2022-09-09T17:11:29;5.90;;;1.63;;
24801;SDS011;12898;50.520;12.152;2022-09-09T17:13:55;3.80;;;1.60;;
24801;SDS011;12898;50.520;12.152;2022-09-09T17:16:24;5.30;;;1.50;;
24801;SDS011;12898;50.520;12.152;2022-09-09T17:18:53;4.35;;;1.92;;
24801;SDS011;12898;50.520;12.152;2022-09-09T17:21:21;3.40;;;1.30;;
24801;SDS011;12898;50.520;12.152;2022-09-09T17:23:49;4.95;;;1.40;;
24801;SDS011;12898;50.520;12.152;2022-09-09T17:26:16;5.32;;;1.23;;
24801;SDS011;12898;50.520;12.152;2022-09-09T17:28:44;3.30;;;1.35;;